Time;durP1;ratioP1;P1;durP2;ratioP2;P2;SDS_P1;SDS_P2;PMS_P1;PMS_P2;Temp;Humidity;BMP_temperature;BMP_pressure;BME280_temperature;BME280_humidity;BME280_pressure;Samples;Min_cycle;Max_cycle;Signal;HPM_P1;HPM_P2
2023/05/20 00:00:34;;;;;;;6.47;2.50;;;;;;;12.68;100.00;101896.09;4960244;28;20097;-72
2023/05/20 00:03:01;;;;;;;6.47;2.83;;;;;;;12.70;100.00;101899.31;4964972;28;20082;-72
2023/05/20 00:05:27;;;;;;;5.40;2.50;;;;;;;12.62;100.00;101904.09;4965602;28;20489;-70
2023/05/20 00:07:54;;;;;;;12.30;3.25;;;;;;;12.62;100.00;101900.53;4965676;28;20560;-72
2023/05/20 00:10:20;;;;;;;6.15;2.58;;;;;;;12.60;100.00;101898.16;4962199;28;20142;-72
2023/05/20 00:12:47;;;;;;;9.07;2.83;;;;;;;12.57;100.00;101896.94;4966322;28;20098;-74
2023/05/20 00:15:13;;;;;;;10.60;2.80;;;;;;;12.56;100.00;101893.78;4969115;28;20074;-70
2023/05/20 00:17:40;;;;;;;8.80;2.72;;;;;;;12.53;100.00;101892.59;4970968;28;20046;-71
2023/05/20 00:20:07;;;;;;;9.90;2.97;;;;;;;12.50;100.00;101899.75;4966901;28;20101;-71
2023/05/20 00:22:33;;;;;;;5.07;2.50;;;;;;;12.50;100.00;101891.38;4967995;28;20046;-72
2023/05/20 00:25:00;;;;;;;9.50;2.83;;;;;;;12.46;100.00;101898.19;4971193;28;20138;-72
2023/05/20 00:27:26;;;;;;;7.50;2.60;;;;;;;12.45;100.00;101900.16;4971026;28;20134;-72
2023/05/20 00:29:53;;;;;;;6.60;2.95;;;;;;;12.40;100.00;101897.00;4968440;28;20054;-73
2023/05/20 00:32:19;;;;;;;7.70;2.50;;;;;;;12.41;100.00;101898.59;4960640;28;20093;-72
2023/05/20 00:34:56;;;;;;;5.43;2.63;;;;;;;12.39;100.00;101898.97;4964327;28;20114;-69
2023/05/20 00:37:23;;;;;;;7.70;2.55;;;;;;;12.38;100.00;101893.81;4961824;28;20050;-72
2023/05/20 00:39:50;;;;;;;9.38;2.72;;;;;;;12.37;100.00;101898.59;4962659;28;20051;-72
2023/05/20 00:42:27;;;;;;;6.38;2.72;;;;;;;12.34;100.00;101902.16;4963745;28;20138;-71
2023/05/20 00:44:54;;;;;;;7.70;2.60;;;;;;;12.34;100.00;101898.56;4965593;28;20130;-71
2023/05/20 00:47:25;;;;;;;7.00;3.03;;;;;;;12.28;100.00;101892.59;4964701;28;20051;-72
2023/05/20 00:49:52;;;;;;;8.88;3.10;;;;;;;12.31;100.00;101902.16;4959415;28;20153;-72
2023/05/20 00:52:20;;;;;;;5.57;2.30;;;;;;;12.25;100.00;101896.19;4967521;28;20081;-73
2023/05/20 00:54:46;;;;;;;7.63;2.70;;;;;;;12.27;100.00;101899.38;4968107;28;20054;-69
2023/05/20 00:57:14;;;;;;;11.55;2.78;;;;;;;12.29;100.00;101907.34;4969944;28;20047;-70
2023/05/20 00:59:40;;;;;;;5.97;2.35;;;;;;;12.25;100.00;101900.97;4969807;28;20464;-70
2023/05/20 01:02:10;;;;;;;8.18;3.08;;;;;;;12.20;100.00;101899.41;4960831;28;20080;-69
2023/05/20 01:04:37;;;;;;;7.38;2.40;;;;;;;12.14;100.00;101895.41;4969301;28;20146;-71
2023/05/20 01:07:06;;;;;;;14.27;4.78;;;;;;;12.13;100.00;101902.16;4966017;28;20105;-71
2023/05/20 01:09:32;;;;;;;7.38;2.53;;;;;;;12.12;100.00;101892.22;4965819;28;20640;-71
2023/05/20 01:12:05;;;;;;;5.82;2.40;;;;;;;12.09;100.00;101893.03;4962383;28;20394;-71
2023/05/20 01:14:38;;;;;;;9.43;2.50;;;;;;;12.06;100.00;101891.03;4968312;28;20875;-71
2023/05/20 01:17:09;;;;;;;7.07;2.60;;;;;;;12.03;100.00;101888.25;4970017;28;20078;-72
2023/05/20 01:19:42;;;;;;;8.73;3.22;;;;;;;11.96;100.00;101894.63;4969743;28;20470;-70
2023/05/20 01:22:14;;;;;;;9.60;3.00;;;;;;;11.99;100.00;101888.25;4964241;28;20562;-71
2023/05/20 01:24:41;;;;;;;9.43;3.20;;;;;;;11.92;100.00;101893.81;4968971;28;20141;-71
2023/05/20 01:27:12;;;;;;;6.78;2.53;;;;;;;11.84;100.00;101897.81;4968441;28;20074;-71
2023/05/20 01:29:41;;;;;;;7.57;2.60;;;;;;;11.77;100.00;101897.00;4968585;28;20046;-71
2023/05/20 01:32:27;;;;;;;6.70;2.70;;;;;;;11.72;100.00;101884.25;4967129;28;20140;-70
2023/05/20 01:34:55;;;;;;;10.00;3.03;;;;;;;11.74;100.00;101895.00;4969585;28;20054;-70
2023/05/20 01:37:24;;;;;;;7.95;3.10;;;;;;;11.75;100.00;101885.47;4969446;28;20483;-72
2023/05/20 01:39:52;;;;;;;5.90;2.65;;;;;;;11.69;100.00;101890.66;4964584;28;20051;-71
2023/05/20 01:42:19;;;;;;;7.60;2.92;;;;;;;11.69;100.00;101885.09;4968759;28;20126;-71
2023/05/20 01:44:46;;;;;;;6.72;3.03;;;;;;;11.61;100.00;101883.47;4970222;28;20046;-70
2023/05/20 01:47:12;;;;;;;9.02;3.00;;;;;;;11.59;100.00;101891.44;4968029;28;20051;-71
2023/05/20 01:49:40;;;;;;;6.43;2.67;;;;;;;11.56;100.00;101881.09;4969415;28;20058;-70
2023/05/20 01:52:06;;;;;;;10.65;3.35;;;;;;;11.59;100.00;101873.94;4967733;28;20047;-70
2023/05/20 01:54:33;;;;;;;8.35;2.63;;;;;;;11.55;100.00;101887.06;4965768;28;20555;-70
2023/05/20 01:57:00;;;;;;;5.57;2.95;;;;;;;11.52;100.00;101873.91;4967816;28;20058;-69
2023/05/20 01:59:26;;;;;;;6.47;2.88;;;;;;;11.50;100.00;101876.28;4964729;28;20152;-70
2023/05/20 02:01:53;;;;;;;5.88;2.55;;;;;;;11.47;100.00;101877.09;4967536;28;20106;-70
2023/05/20 02:04:21;;;;;;;9.48;2.63;;;;;;;11.46;100.00;101875.50;4968376;28;20066;-69
2023/05/20 02:06:48;;;;;;;7.15;2.50;;;;;;;11.44;100.00;101875.91;4969387;28;20047;-72
2023/05/20 02:09:14;;;;;;;10.73;2.88;;;;;;;11.39;100.00;101876.28;4967617;28;20743;-70
2023/05/20 02:11:41;;;;;;;8.45;2.90;;;;;;;11.42;100.00;101883.06;4966830;28;20131;-71
2023/05/20 02:14:07;;;;;;;10.77;3.10;;;;;;;11.41;100.00;101885.03;4967943;28;20058;-71
2023/05/20 02:16:34;;;;;;;7.85;2.75;;;;;;;11.33;100.00;101877.88;4967322;28;20635;-69
2023/05/20 02:19:00;;;;;;;7.30;2.85;;;;;;;11.32;100.00;101881.06;4966170;28;20086;-68
2023/05/20 02:21:27;;;;;;;6.20;2.80;;;;;;;11.30;100.00;101878.66;4968059;28;20055;-71
2023/05/20 02:23:54;;;;;;;12.70;3.97;;;;;;;11.30;100.00;101886.19;4969296;28;20153;-67
2023/05/20 02:26:21;;;;;;;6.35;2.83;;;;;;;11.24;100.00;101882.22;4968729;28;20105;-71
2023/05/20 02:28:49;;;;;;;9.63;3.33;;;;;;;11.25;100.00;101881.84;4968448;28;20081;-70
2023/05/20 02:31:16;;;;;;;10.10;3.63;;;;;;;11.22;100.00;101876.22;4968011;28;20082;-69
2023/05/20 02:33:43;;;;;;;10.57;3.03;;;;;;;11.18;100.00;101890.13;4965452;28;20616;-72
2023/05/20 02:36:10;;;;;;;6.18;2.88;;;;;;;11.15;100.00;101888.16;4968405;28;20070;-71
2023/05/20 02:38:37;;;;;;;8.68;3.47;;;;;;;11.14;100.00;101885.75;4966148;28;20054;-70
2023/05/20 02:41:03;;;;;;;6.80;2.88;;;;;;;11.10;100.00;101880.16;4967953;28;20464;-71
2023/05/20 02:43:31;;;;;;;12.13;3.60;;;;;;;11.12;100.00;101882.56;4966853;28;20879;-71
2023/05/20 02:45:58;;;;;;;6.97;2.92;;;;;;;11.15;100.00;101876.19;4961752;28;20102;-70
2023/05/20 02:48:25;;;;;;;8.30;3.25;;;;;;;11.10;100.00;101879.34;4965601;28;20050;-71
2023/05/20 02:50:52;;;;;;;8.93;2.95;;;;;;;11.06;100.00;101882.16;4967997;28;20134;-70
2023/05/20 02:53:18;;;;;;;7.18;3.00;;;;;;;11.07;100.00;101880.94;4967198;28;20050;-70
2023/05/20 02:55:49;;;;;;;8.15;2.90;;;;;;;11.02;100.00;101878.56;4968227;28;20082;-71
2023/05/20 02:58:16;;;;;;;8.13;3.33;;;;;;;10.99;100.00;101873.78;4966174;28;20058;-69
2023/05/20 03:00:43;;;;;;;9.02;3.30;;;;;;;11.01;100.00;101870.59;4967401;28;20578;-72
2023/05/20 03:03:09;;;;;;;14.52;3.70;;;;;;;10.95;100.00;101864.63;4963688;28;20495;-70
2023/05/20 03:05:36;;;;;;;7.28;2.90;;;;;;;11.00;100.00;101869.78;4966919;28;20050;-72
2023/05/20 03:08:08;;;;;;;6.75;2.90;;;;;;;10.98;100.00;101876.94;4966488;28;20093;-71
2023/05/20 03:10:38;;;;;;;7.63;2.83;;;;;;;10.97;100.00;101870.56;4963703;28;20051;-68
2023/05/20 03:13:10;;;;;;;8.77;2.83;;;;;;;10.96;100.00;101860.63;4959135;28;20129;-70
2023/05/20 03:15:38;;;;;;;9.13;3.20;;;;;;;10.96;100.00;101868.19;4956161;28;20051;-71
2023/05/20 03:18:05;;;;;;;7.50;3.15;;;;;;;10.94;100.00;101878.94;4963233;28;20047;-70
2023/05/20 03:20:35;;;;;;;10.10;3.30;;;;;;;10.89;100.00;101874.53;4967095;28;20046;-70
2023/05/20 03:23:02;;;;;;;6.80;3.15;;;;;;;10.90;100.00;101873.34;4967637;28;20047;-70
2023/05/20 03:25:29;;;;;;;9.40;3.38;;;;;;;10.88;100.00;101877.72;4966047;28;20505;-71
2023/05/20 03:27:59;;;;;;;11.50;3.20;;;;;;;10.87;100.00;101879.69;4965707;28;20074;-69
2023/05/20 03:30:26;;;;;;;7.30;3.33;;;;;;;10.84;100.00;101880.47;4961021;28;20105;-71
2023/05/20 03:32:57;;;;;;;7.07;2.90;;;;;;;10.81;100.00;101875.72;4967721;28;20046;-73
2023/05/20 03:35:26;;;;;;;10.98;3.67;;;;;;;10.80;100.00;101876.88;4967398;28;20050;-71
2023/05/20 03:37:53;;;;;;;6.90;3.10;;;;;;;10.78;100.00;101881.25;4964895;28;20043;-71
2023/05/20 03:40:20;;;;;;;9.10;3.15;;;;;;;10.71;100.00;101879.25;4963879;28;20651;-72
2023/05/20 03:42:46;;;;;;;8.48;3.47;;;;;;;10.67;100.00;101867.28;4963281;28;20128;-71
2023/05/20 03:45:13;;;;;;;12.88;3.63;;;;;;;10.69;100.00;101870.47;4964406;28;20051;-72
2023/05/20 03:47:40;;;;;;;8.90;3.20;;;;;;;10.69;100.00;101859.34;4966732;28;20153;-72
2023/05/20 03:50:06;;;;;;;6.95;3.17;;;;;;;10.71;100.00;101868.13;4967348;28;20133;-71
2023/05/20 03:52:33;;;;;;;7.78;2.90;;;;;;;10.70;100.00;101860.94;4968803;28;20062;-69
2023/05/20 03:55:00;;;;;;;11.82;3.38;;;;;;;10.72;100.00;101857.75;4968280;28;20065;-74
2023/05/20 03:57:28;;;;;;;8.23;3.55;;;;;;;10.74;100.00;101856.19;4969285;28;20042;-72
2023/05/20 03:59:54;;;;;;;9.73;3.22;;;;;;;10.72;100.00;101863.31;4969196;28;20560;-72
2023/05/20 04:02:21;;;;;;;10.23;3.25;;;;;;;10.72;100.00;101869.69;4970917;28;20150;-71
2023/05/20 04:04:51;;;;;;;9.32;3.25;;;;;;;10.70;100.00;101865.72;4968739;28;20051;-73
2023/05/20 04:07:18;;;;;;;9.68;3.70;;;;;;;10.69;100.00;101861.31;4969846;28;20521;-73
2023/05/20 04:09:45;;;;;;;13.35;4.75;;;;;;;10.70;100.00;101855.38;4970514;28;20047;-72
2023/05/20 04:12:12;;;;;;;8.18;3.50;;;;;;;10.70;100.00;101855.38;4970269;28;20073;-72
2023/05/20 04:14:40;;;;;;;7.30;3.10;;;;;;;10.65;100.00;101850.19;4969506;28;20055;-72
2023/05/20 04:17:08;;;;;;;9.13;3.53;;;;;;;10.68;100.00;101854.19;4967617;28;20047;-72
2023/05/20 04:19:37;;;;;;;10.25;3.72;;;;;;;10.75;100.00;101859.75;4968288;28;20058;-72
2023/05/20 04:22:03;;;;;;;7.50;3.50;;;;;;;10.72;100.00;101849.41;4968831;28;20047;-72
2023/05/20 04:24:30;;;;;;;7.60;2.95;;;;;;;10.76;100.00;101859.38;4969839;28;20166;-74
2023/05/20 04:26:56;;;;;;;7.28;3.10;;;;;;;10.81;100.00;101861.00;4969478;28;20052;-71
2023/05/20 04:29:23;;;;;;;18.25;4.50;;;;;;;10.86;100.00;101861.41;4970002;28;20513;-72
2023/05/20 04:31:50;;;;;;;8.80;3.45;;;;;;;10.90;100.00;101869.78;4970714;28;20084;-72
2023/05/20 04:34:19;;;;;;;5.97;2.97;;;;;;;10.93;100.00;101872.56;4970352;28;20212;-71
2023/05/20 04:36:45;;;;;;;10.30;3.60;;;;;;;10.94;100.00;101865.00;4970102;28;20090;-73
2023/05/20 04:39:12;;;;;;;8.73;3.75;;;;;;;10.97;100.00;101867.78;4968537;28;20473;-69
2023/05/20 04:41:39;;;;;;;8.18;3.15;;;;;;;10.99;100.00;101871.00;4969250;28;20054;-71
2023/05/20 04:44:06;;;;;;;6.95;3.40;;;;;;;10.99;100.00;101864.63;4969143;28;20070;-70
2023/05/20 04:46:32;;;;;;;8.80;3.47;;;;;;;11.01;100.00;101871.38;4960721;28;20057;-73
2023/05/20 04:48:59;;;;;;;9.75;3.85;;;;;;;11.09;100.00;101866.63;4969469;28;20078;-71
2023/05/20 04:51:26;;;;;;;9.75;3.38;;;;;;;11.12;100.00;101871.41;4967060;28;20054;-74
2023/05/20 04:53:52;;;;;;;9.25;3.60;;;;;;;11.15;100.00;101867.84;4968317;28;20105;-72
2023/05/20 04:56:19;;;;;;;8.02;3.53;;;;;;;11.18;100.00;101865.06;4967663;28;20192;-72
2023/05/20 04:58:46;;;;;;;9.73;3.58;;;;;;;11.25;100.00;101870.69;4969831;28;20055;-71
2023/05/20 05:01:12;;;;;;;7.45;3.38;;;;;;;11.34;100.00;101867.53;4969412;28;20085;-70
2023/05/20 05:03:39;;;;;;;8.38;4.00;;;;;;;11.40;100.00;101854.78;4966282;28;20050;-69
2023/05/20 05:06:05;;;;;;;10.13;3.60;;;;;;;11.46;100.00;101859.59;4969172;28;20129;-70
2023/05/20 05:08:32;;;;;;;7.95;3.78;;;;;;;11.54;100.00;101861.19;4970022;28;20129;-73
2023/05/20 05:10:58;;;;;;;7.75;3.42;;;;;;;11.55;100.00;101856.41;4968550;28;20567;-73
2023/05/20 05:13:25;;;;;;;7.40;4.05;;;;;;;11.58;100.00;101850.06;4965106;28;20105;-69
2023/05/20 05:15:59;;;;;;;13.63;3.72;;;;;;;11.65;100.00;101856.41;4968915;28;20696;-68
2023/05/20 05:18:26;;;;;;;9.95;3.80;;;;;;;11.72;100.00;101850.84;4967904;28;20042;-70
2023/05/20 05:21:03;;;;;;;10.00;3.17;;;;;;;11.81;100.00;101847.66;4969473;28;20050;-70
2023/05/20 05:23:29;;;;;;;8.32;3.65;;;;;;;11.86;100.00;101845.28;4962576;28;20073;-69
2023/05/20 05:25:56;;;;;;;8.18;3.65;;;;;;;11.89;100.00;101852.81;4969706;28;20102;-70
2023/05/20 05:28:23;;;;;;;11.23;3.63;;;;;;;11.96;100.00;101849.25;4969269;28;20141;-73
2023/05/20 05:30:50;;;;;;;8.63;3.85;;;;;;;12.00;100.00;101847.25;4967553;28;20058;-69
2023/05/20 05:33:16;;;;;;;9.32;3.67;;;;;;;12.08;100.00;101852.41;4967912;28;20089;-70
2023/05/20 05:35:43;;;;;;;10.10;4.10;;;;;;;12.11;100.00;101846.03;4966847;28;20078;-72
2023/05/20 05:38:09;;;;;;;9.60;3.72;;;;;;;12.13;100.00;101840.06;4963417;28;20133;-70
2023/05/20 05:40:36;;;;;;;9.55;3.83;;;;;;;12.19;100.00;101847.59;4968965;28;20047;-69
2023/05/20 05:43:03;;;;;;;12.27;3.90;;;;;;;12.26;100.00;101838.44;4968779;28;20662;-70
2023/05/20 05:45:29;;;;;;;9.70;3.72;;;;;;;12.27;100.00;101845.59;4962220;28;20047;-73
2023/05/20 05:47:56;;;;;;;10.80;3.88;;;;;;;12.35;100.00;101845.19;4966892;28;20057;-72
2023/05/20 05:50:23;;;;;;;9.98;4.10;;;;;;;12.38;100.00;101841.63;4961813;28;20073;-72
2023/05/20 05:52:49;;;;;;;9.75;3.83;;;;;;;12.39;100.00;101832.03;4965653;28;20059;-70
2023/05/20 05:55:17;;;;;;;8.63;3.60;;;;;;;12.44;100.00;101831.66;4967029;28;20054;-69
2023/05/20 05:57:44;;;;;;;7.85;3.85;;;;;;;12.52;100.00;101837.97;4968872;28;20064;-71
2023/05/20 06:00:11;;;;;;;11.70;4.53;;;;;;;12.51;100.00;101836.41;4966260;28;20058;-70
2023/05/20 06:02:37;;;;;;;8.20;4.22;;;;;;;12.61;100.00;101834.75;4968958;28;20758;-71
2023/05/20 06:05:05;;;;;;;9.80;4.03;;;;;;;12.67;100.00;101845.09;4966937;28;20046;-70
2023/05/20 06:07:31;;;;;;;9.07;4.30;;;;;;;12.73;100.00;101837.09;4955553;28;20102;-70
2023/05/20 06:09:58;;;;;;;9.88;4.25;;;;;;;12.77;100.00;101846.25;4960907;28;20062;-71
2023/05/20 06:12:24;;;;;;;8.63;3.70;;;;;;;12.79;100.00;101844.63;4960921;28;20109;-70
2023/05/20 06:14:51;;;;;;;10.98;4.30;;;;;;;12.80;100.00;101832.28;4957876;28;20421;-68
2023/05/20 06:17:18;;;;;;;10.10;4.40;;;;;;;12.93;100.00;101829.84;4957456;28;20142;-72
2023/05/20 06:19:45;;;;;;;9.20;4.00;;;;;;;12.99;100.00;101819.84;4959750;28;20047;-72
2023/05/20 06:22:11;;;;;;;11.52;4.38;;;;;;;13.05;100.00;101826.56;4958182;28;20122;-71
2023/05/20 06:24:38;;;;;;;11.52;4.63;;;;;;;13.09;100.00;101830.13;4957942;28;20055;-71
2023/05/20 06:27:04;;;;;;;12.18;4.40;;;;;;;13.15;100.00;101839.66;4956053;28;20055;-69
2023/05/20 06:29:31;;;;;;;11.82;4.57;;;;;;;13.22;100.00;101828.44;4966152;28;20046;-70
2023/05/20 06:31:58;;;;;;;17.33;5.80;;;;;;;13.33;100.00;101829.19;4961489;28;20047;-68
2023/05/20 06:34:25;;;;;;;9.40;4.10;;;;;;;13.43;100.00;101825.56;4964029;28;20543;-68
2023/05/20 06:36:52;;;;;;;12.13;4.35;;;;;;;13.46;100.00;101825.50;4967213;28;20524;-71
2023/05/20 06:39:18;;;;;;;10.85;4.13;;;;;;;13.57;100.00;101836.63;4965709;28;20141;-69
2023/05/20 06:41:45;;;;;;;11.32;4.82;;;;;;;13.67;100.00;101827.34;4963905;28;20082;-69
2023/05/20 06:44:11;;;;;;;11.50;4.20;;;;;;;13.74;100.00;101811.28;4965615;28;20584;-70
2023/05/20 06:46:38;;;;;;;8.77;4.00;;;;;;;13.82;100.00;101821.22;4963620;28;20113;-67
2023/05/20 06:49:05;;;;;;;12.23;4.72;;;;;;;13.85;100.00;101819.59;4966619;28;20397;-69
2023/05/20 06:51:31;;;;;;;11.63;4.53;;;;;;;13.91;100.00;101815.16;4966126;28;20132;-67
2023/05/20 06:53:58;;;;;;;12.57;4.57;;;;;;;13.92;100.00;101813.94;4963962;28;20053;-68
2023/05/20 06:56:24;;;;;;;10.15;4.70;;;;;;;13.92;100.00;101827.91;4964553;28;20055;-68
2023/05/20 06:58:51;;;;;;;10.35;4.47;;;;;;;13.93;100.00;101818.31;4963016;28;20386;-67
2023/05/20 07:01:18;;;;;;;13.48;4.85;;;;;;;13.90;100.00;101813.53;4962931;28;20140;-69
2023/05/20 07:03:44;;;;;;;10.77;4.80;;;;;;;13.84;100.00;101821.59;4966682;28;20054;-67
2023/05/20 07:06:11;;;;;;;15.45;5.38;;;;;;;13.83;100.00;101817.22;4966506;28;20141;-67
2023/05/20 07:08:37;;;;;;;11.75;4.78;;;;;;;13.85;100.00;101812.00;4966222;28;20554;-68
2023/05/20 07:11:04;;;;;;;9.25;5.03;;;;;;;13.96;100.00;101820.28;4961793;28;20078;-69
2023/05/20 07:13:31;;;;;;;10.13;4.95;;;;;;;14.04;100.00;101816.22;4966814;28;20105;-67
2023/05/20 07:15:57;;;;;;;11.95;5.28;;;;;;;14.09;100.00;101824.16;4967676;28;20051;-68
2023/05/20 07:18:24;;;;;;;12.32;5.00;;;;;;;14.24;100.00;101828.38;4965876;28;20460;-70
2023/05/20 07:20:51;;;;;;;10.65;4.75;;;;;;;14.36;100.00;101825.06;4960493;28;20118;-68
2023/05/20 07:23:18;;;;;;;12.77;4.82;;;;;;;14.49;100.00;101826.13;4966995;28;20050;-69
2023/05/20 07:25:44;;;;;;;12.55;5.32;;;;;;;14.47;100.00;101815.34;4968441;28;20111;-69
2023/05/20 07:28:14;;;;;;;12.52;5.18;;;;;;;14.52;100.00;101823.28;4971700;28;20527;-68
2023/05/20 07:30:41;;;;;;;12.68;5.70;;;;;;;14.46;100.00;101810.97;4969384;28;20146;-68
2023/05/20 07:33:08;;;;;;;14.65;5.60;;;;;;;14.39;100.00;101816.59;4968870;28;20082;-68
2023/05/20 07:35:34;;;;;;;13.68;6.20;;;;;;;14.41;100.00;101808.59;4971787;28;20084;-68
2023/05/20 07:38:01;;;;;;;13.73;5.63;;;;;;;14.42;100.00;101806.63;4964375;28;20061;-69
2023/05/20 07:40:28;;;;;;;10.05;4.85;;;;;;;14.43;100.00;101811.81;4967121;28;20101;-67
2023/05/20 07:42:55;;;;;;;13.05;5.60;;;;;;;14.49;100.00;101804.53;4967031;28;20090;-68
2023/05/20 07:45:21;;;;;;;14.52;5.93;;;;;;;14.52;100.00;101803.69;4969647;28;20057;-68
2023/05/20 07:47:48;;;;;;;12.38;5.05;;;;;;;14.57;100.00;101805.25;4970767;28;20082;-69
2023/05/20 07:50:16;;;;;;;15.88;5.60;;;;;;;14.54;100.00;101808.88;4966435;28;20130;-69
2023/05/20 07:52:42;;;;;;;14.25;5.43;;;;;;;14.54;100.00;101817.25;4971119;28;20046;-69
2023/05/20 07:55:22;;;;;;;13.23;5.90;;;;;;;14.37;100.00;101799.47;4970410;28;20046;-68
2023/05/20 07:57:49;;;;;;;13.07;5.68;;;;;;;14.43;100.00;101806.22;4971801;28;20513;-68
2023/05/20 08:00:15;;;;;;;12.60;5.15;;;;;;;14.45;100.00;101808.59;4964118;28;20054;-70
2023/05/20 08:02:42;;;;;;;15.45;7.60;;;;;;;14.51;100.00;101801.31;4971348;28;20047;-69
2023/05/20 08:05:09;;;;;;;15.90;6.65;;;;;;;14.49;100.00;101814.94;4969405;28;20097;-68
2023/05/20 08:07:35;;;;;;;15.93;6.22;;;;;;;14.57;100.00;101811.63;4971091;28;20047;-69
2023/05/20 08:10:02;;;;;;;14.07;6.15;;;;;;;14.62;100.00;101810.38;4967852;28;20047;-69
2023/05/20 08:12:29;;;;;;;14.40;6.05;;;;;;;14.68;100.00;101808.69;4971532;28;20078;-65
2023/05/20 08:14:55;;;;;;;14.85;6.68;;;;;;;14.66;100.00;101806.31;4970602;28;20109;-69
2023/05/20 08:17:22;;;;;;;12.77;5.43;;;;;;;14.73;100.00;101811.03;4964174;28;20050;-69
2023/05/20 08:19:49;;;;;;;15.80;6.88;;;;;;;14.72;100.00;101813.03;4966017;28;20109;-69
2023/05/20 08:22:15;;;;;;;14.63;5.82;;;;;;;14.81;100.00;101809.72;4969828;28;20524;-69
2023/05/20 08:24:42;;;;;;;14.23;5.97;;;;;;;14.90;100.00;101810.00;4968820;28;20098;-69
2023/05/20 08:27:09;;;;;;;12.52;6.38;;;;;;;14.96;100.00;101803.50;4967885;28;20476;-69
2023/05/20 08:29:35;;;;;;;12.20;5.63;;;;;;;15.08;100.00;101802.13;4963541;28;20051;-69
2023/05/20 08:32:02;;;;;;;15.65;6.60;;;;;;;14.99;100.00;101799.84;4968780;28;20105;-68
2023/05/20 08:34:28;;;;;;;15.32;6.78;;;;;;;14.96;100.00;101797.91;4968110;28;20105;-69
2023/05/20 08:36:56;;;;;;;15.70;6.53;;;;;;;15.02;100.00;101806.63;4967614;28;20222;-69
2023/05/20 08:39:25;;;;;;;16.35;5.95;;;;;;;15.15;100.00;101802.03;4968448;28;20086;-71
2023/05/20 08:41:51;;;;;;;15.18;5.95;;;;;;;15.19;100.00;101797.16;4968590;28;20047;-69
2023/05/20 08:44:20;;;;;;;17.05;6.60;;;;;;;15.32;100.00;101800.97;4968040;28;20062;-69
2023/05/20 08:46:47;;;;;;;14.80;6.40;;;;;;;15.39;100.00;101803.69;4967324;28;20505;-68
2023/05/20 08:49:14;;;;;;;16.88;6.68;;;;;;;15.48;100.00;101786.31;4959054;28;20057;-69
2023/05/20 08:51:41;;;;;;;21.13;6.53;;;;;;;15.62;100.00;101786.06;4965547;28;20071;-68
2023/05/20 08:54:08;;;;;;;14.48;6.70;;;;;;;15.75;100.00;101796.28;4967648;28;20105;-70
2023/05/20 08:56:35;;;;;;;14.98;7.22;;;;;;;15.72;100.00;101783.09;4965642;28;20110;-69
2023/05/20 08:59:02;;;;;;;15.50;6.95;;;;;;;15.75;100.00;101796.28;4966448;28;20074;-69
2023/05/20 09:01:29;;;;;;;14.95;6.78;;;;;;;15.84;100.00;101793.72;4964206;28;20049;-71
2023/05/20 09:03:55;;;;;;;15.48;7.25;;;;;;;15.87;100.00;101797.66;4966321;28;20054;-71
2023/05/20 09:06:22;;;;;;;13.73;6.57;;;;;;;15.84;100.00;101790.91;4968597;28;20054;-71
2023/05/20 09:08:52;;;;;;;13.63;5.68;;;;;;;15.80;100.00;101792.97;4962883;28;20043;-71
2023/05/20 09:11:21;;;;;;;14.52;6.50;;;;;;;15.86;100.00;101796.09;4967733;28;20141;-70
2023/05/20 09:13:49;;;;;;;10.85;5.35;;;;;;;15.86;100.00;101784.88;4964861;28;20429;-70
2023/05/20 09:16:15;;;;;;;14.27;6.78;;;;;;;15.92;100.00;101792.34;4967668;28;20058;-70
2023/05/20 09:18:42;;;;;;;15.95;6.35;;;;;;;15.95;100.00;101794.31;4964500;28;20410;-70
2023/05/20 09:21:09;;;;;;;20.50;7.53;;;;;;;15.83;100.00;101788.53;4963973;28;20050;-69
2023/05/20 09:23:37;;;;;;;15.05;6.50;;;;;;;15.81;100.00;101783.34;4967737;28;20652;-70
2023/05/20 09:26:04;;;;;;;16.60;7.32;;;;;;;15.87;100.00;101792.06;4967956;28;20080;-71
2023/05/20 09:28:31;;;;;;;16.70;6.88;;;;;;;15.71;100.00;101794.75;4968422;28;20134;-68
2023/05/20 09:30:58;;;;;;;14.10;6.30;;;;;;;15.68;100.00;101804.81;4968877;28;20055;-71
2023/05/20 09:33:30;;;;;;;15.20;7.10;;;;;;;15.64;100.00;101787.25;4969901;28;20080;-70
2023/05/20 09:36:03;;;;;;;16.70;7.38;;;;;;;15.73;100.00;101795.13;4966173;28;20098;-72
2023/05/20 09:38:36;;;;;;;15.52;6.05;;;;;;;15.66;100.00;101796.03;4967883;28;20051;-68
2023/05/20 09:41:12;;;;;;;14.73;6.72;;;;;;;15.64;100.00;101787.25;4961953;28;20138;-69
2023/05/20 09:43:39;;;;;;;12.32;5.80;;;;;;;15.59;100.00;101793.34;4968533;28;20070;-70
2023/05/20 09:46:07;;;;;;;15.57;6.72;;;;;;;15.63;100.00;101788.47;4966320;28;20061;-71
2023/05/20 09:48:39;;;;;;;15.60;6.97;;;;;;;15.64;100.00;101787.25;4967238;28;20043;-70
2023/05/20 09:51:06;;;;;;;15.23;6.93;;;;;;;15.72;100.00;101780.31;4967020;28;20042;-69
2023/05/20 09:53:34;;;;;;;14.23;6.22;;;;;;;15.78;100.00;101789.00;4968171;28;20055;-69
2023/05/20 09:56:02;;;;;;;13.38;5.72;;;;;;;15.86;100.00;101782.84;4965807;28;20051;-69
2023/05/20 09:58:29;;;;;;;17.42;6.57;;;;;;;15.90;100.00;101788.41;4966315;28;20078;-69
2023/05/20 10:00:56;;;;;;;15.90;6.07;;;;;;;15.85;100.00;101798.09;4949946;28;20062;-69
2023/05/20 10:03:23;;;;;;;14.02;6.10;;;;;;;15.97;100.00;101791.06;4966554;28;20058;-69
2023/05/20 10:06:03;;;;;;;13.73;5.90;;;;;;;16.09;100.00;101782.81;4967534;28;20051;-68
2023/05/20 10:08:46;;;;;;;15.25;6.35;;;;;;;16.16;100.00;101782.69;4963202;28;20062;-69
2023/05/20 10:11:23;;;;;;;14.55;6.20;;;;;;;16.16;100.00;101782.69;4959374;28;20071;-69
2023/05/20 10:14:11;;;;;;;12.38;5.90;;;;;;;16.14;100.00;101759.09;4966329;28;20132;-70
2023/05/20 10:17:07;;;;;;;14.23;6.03;;;;;;;16.24;100.00;101781.31;4967481;28;20479;-70
2023/05/20 10:19:34;;;;;;;15.60;6.22;;;;;;;16.30;100.00;101782.41;4962327;28;20575;-70
2023/05/20 10:22:04;;;;;;;10.90;5.15;;;;;;;16.45;100.00;101775.31;4965994;28;20059;-69
2023/05/20 10:24:39;;;;;;;15.10;6.20;;;;;;;16.49;100.00;101776.03;4958393;28;20086;-68
2023/05/20 10:27:08;;;;;;;10.95;5.70;;;;;;;16.51;100.00;101753.13;4957448;28;20528;-70
2023/05/20 10:29:50;;;;;;;13.57;5.63;;;;;;;16.48;100.00;101756.81;4957933;28;20133;-69
2023/05/20 10:32:24;;;;;;;13.10;6.10;;;;;;;16.56;100.00;101756.22;4964429;28;20057;-72
2023/05/20 10:34:51;;;;;;;16.60;6.67;;;;;;;16.61;100.00;101746.50;4978453;28;20065;-70
2023/05/20 10:37:32;;;;;;;11.75;5.55;;;;;;;16.65;100.00;101752.81;4964746;28;20146;-69
2023/05/20 10:40:18;;;;;;;12.02;5.45;;;;;;;16.64;100.00;101752.03;4965898;28;20097;-70
2023/05/20 10:42:46;;;;;;;9.77;4.57;;;;;;;16.72;100.00;101733.00;4981486;28;20161;-69
2023/05/20 10:45:36;;;;;;;12.10;5.97;;;;;;;16.84;100.00;101738.72;4968523;28;20054;-69
2023/05/20 10:48:03;;;;;;;15.07;6.88;;;;;;;16.91;100.00;101732.19;4963340;28;20047;-71
2023/05/20 10:50:35;;;;;;;15.48;6.38;;;;;;;16.92;100.00;101722.50;4964147;28;20788;-70
2023/05/20 10:53:06;;;;;;;12.75;6.70;;;;;;;16.92;100.00;101726.09;4965524;28;20137;-68
2023/05/20 10:55:52;;;;;;;14.90;6.05;;;;;;;17.08;100.00;101730.97;4961102;28;20075;-70
2023/05/20 10:58:20;;;;;;;13.30;5.57;;;;;;;17.26;100.00;101725.72;4948219;28;20082;-71
2023/05/20 11:00:48;;;;;;;11.60;5.82;;;;;;;17.43;100.00;101719.63;4956316;28;20101;-67
2023/05/20 11:03:17;;;;;;;13.10;6.18;;;;;;;17.59;100.00;101718.03;4958499;28;20162;-70
2023/05/20 11:05:46;;;;;;;11.77;5.28;;;;;;;17.75;100.00;101713.16;4962129;28;20054;-69
2023/05/20 11:08:13;;;;;;;15.50;6.93;;;;;;;17.82;100.00;101707.34;4956505;28;20142;-71
2023/05/20 11:10:46;;;;;;;12.30;7.10;;;;;;;17.81;100.00;101696.53;4954084;28;20122;-72
2023/05/20 11:13:14;;;;;;;13.15;6.28;;;;;;;17.92;100.00;101700.63;4966164;28;20104;-70
2023/05/20 11:15:41;;;;;;;13.73;6.38;;;;;;;17.93;100.00;101707.06;4967682;28;20489;-72